createdAt,value
2018-06-08T00:03:07.554Z,5.10
2018-06-08T00:08:10.242Z,4.30
2018-06-08T00:13:12.862Z,4.17
2018-06-08T00:18:15.469Z,3.43
2018-06-08T00:23:18.128Z,2.93
2018-06-08T00:28:20.713Z,3.23
2018-06-08T00:33:23.302Z,3.80
2018-06-08T00:38:25.886Z,6.60
2018-06-08T00:43:28.585Z,3.87
2018-06-08T00:48:31.190Z,6.00
2018-06-08T00:53:33.781Z,5.07
2018-06-08T00:58:36.375Z,4.30
2018-06-08T01:03:38.986Z,3.03
2018-06-08T01:08:41.611Z,3.53
2018-06-08T01:13:44.203Z,4.73
2018-06-08T01:18:46.793Z,5.47
2018-06-08T01:23:49.498Z,5.00
2018-06-08T01:28:52.138Z,4.83
2018-06-08T01:33:54.714Z,11.47
2018-06-08T01:38:57.318Z,3.73
2018-06-08T01:43:59.934Z,7.33
2018-06-08T01:49:02.526Z,6.53
2018-06-08T01:54:05.221Z,12.67
2018-06-08T01:59:07.844Z,7.80
2018-06-08T02:04:10.428Z,17.70
2018-06-08T02:09:13.063Z,31.90
2018-06-08T02:14:15.647Z,68.13
2018-06-08T02:19:20.657Z,9.63
2018-06-08T02:24:23.282Z,4.57
2018-06-08T02:29:25.878Z,6.20
2018-06-08T02:34:28.555Z,9.27
2018-06-08T02:39:31.150Z,13.83
2018-06-08T02:44:33.682Z,6.07
2018-06-08T02:49:36.484Z,4.53
2018-06-08T02:54:39.081Z,5.80
2018-06-08T02:59:41.681Z,6.77
2018-06-08T03:04:44.274Z,3.03
2018-06-08T03:09:46.886Z,6.47
2018-06-08T03:14:49.479Z,9.50
2018-06-08T03:19:52.091Z,4.40
2018-06-08T03:24:54.722Z,7.90
2018-06-08T03:29:57.331Z,6.10
2018-06-08T03:34:59.944Z,3.37
2018-06-08T03:40:02.658Z,3.87
2018-06-08T03:45:05.926Z,3.60
2018-06-08T03:50:08.566Z,5.67
2018-06-08T03:55:11.181Z,4.97
2018-06-08T04:00:13.791Z,5.30
2018-06-08T04:05:16.374Z,6.93
2018-06-08T04:10:19.002Z,5.87
2018-06-08T04:15:23.871Z,4.67
2018-06-08T04:20:26.877Z,5.70
2018-06-08T04:25:29.495Z,7.13
2018-06-08T04:30:32.100Z,6.80
2018-06-08T04:35:34.699Z,4.37
2018-06-08T04:40:37.893Z,3.43
2018-06-08T04:45:40.495Z,5.57
2018-06-08T04:50:43.211Z,6.43
2018-06-08T04:55:45.895Z,4.23
2018-06-08T05:00:48.494Z,8.87
2018-06-08T05:05:51.220Z,4.37
2018-06-08T05:10:53.824Z,8.10
2018-06-08T05:15:58.698Z,7.63
2018-06-08T05:21:01.334Z,7.03
2018-06-08T05:26:03.866Z,30.53
2018-06-08T05:31:06.458Z,34.13
2018-06-08T05:36:09.210Z,23.60
2018-06-08T05:41:11.793Z,21.77
2018-06-08T05:46:14.391Z,11.90
2018-06-08T05:51:17.107Z,9.60
2018-06-08T05:56:19.710Z,12.70
2018-06-08T06:01:22.380Z,14.80
2018-06-08T06:06:24.980Z,15.87
2018-06-08T06:11:27.654Z,13.70
2018-06-08T06:16:30.270Z,16.40
2018-06-08T06:21:32.907Z,12.57
2018-06-08T06:26:35.520Z,11.83
2018-06-08T06:31:38.199Z,15.13
2018-06-08T06:36:40.842Z,13.97
2018-06-08T06:41:43.463Z,18.03
2018-06-08T06:46:46.055Z,20.73
2018-06-08T06:51:48.722Z,31.07
2018-06-08T06:56:51.318Z,21.20
2018-06-08T07:01:54.023Z,16.13
2018-06-08T07:06:56.611Z,15.27
2018-06-08T07:11:59.190Z,15.80
2018-06-08T07:17:03.062Z,16.03
2018-06-08T07:22:05.703Z,16.30
2018-06-08T07:27:09.006Z,14.60
2018-06-08T07:32:11.646Z,14.93
2018-06-08T07:37:14.279Z,14.97
2018-06-08T07:42:16.999Z,13.40
2018-06-08T07:47:19.620Z,16.53
2018-06-08T07:52:22.250Z,13.10
2018-06-08T07:57:24.855Z,13.70
2018-06-08T08:02:27.527Z,15.27
2018-06-08T08:07:30.101Z,15.27
2018-06-08T08:12:32.651Z,23.30
2018-06-08T08:17:35.216Z,23.27
2018-06-08T08:22:37.790Z,21.87
2018-06-08T08:27:40.375Z,20.33
2018-06-08T08:32:42.952Z,21.80
2018-06-08T08:37:45.538Z,21.87
2018-06-08T08:42:48.094Z,22.93
2018-06-08T08:47:50.650Z,21.27
2018-06-08T08:52:53.219Z,23.90
2018-06-08T08:57:55.794Z,22.40
2018-06-08T09:02:58.359Z,22.80
2018-06-08T09:08:00.918Z,24.90
2018-06-08T09:13:03.542Z,25.63
2018-06-08T09:18:06.146Z,25.73
2018-06-08T09:23:08.814Z,22.27
2018-06-08T09:28:11.451Z,25.17
2018-06-08T09:33:14.072Z,26.23
2018-06-08T09:38:17.384Z,26.17
2018-06-08T09:43:19.962Z,25.97
2018-06-08T09:48:22.564Z,22.73
2018-06-08T09:53:25.119Z,23.27
2018-06-08T09:58:27.698Z,23.43
2018-06-08T10:03:30.257Z,23.13
2018-06-08T10:08:32.866Z,23.57
2018-06-08T10:13:35.523Z,20.47
2018-06-08T10:18:38.130Z,20.33
2018-06-08T10:23:40.688Z,19.70
2018-06-08T10:28:43.242Z,17.50
2018-06-08T10:33:45.887Z,16.50
2018-06-08T10:38:48.475Z,14.93
2018-06-08T10:43:51.077Z,9.67
2018-06-08T10:48:53.660Z,14.00
2018-06-08T10:53:57.125Z,13.87
2018-06-08T10:58:59.835Z,10.60
2018-06-08T11:04:02.427Z,10.00
2018-06-08T11:09:08.495Z,10.10
2018-06-08T11:14:11.066Z,10.57
2018-06-08T11:19:13.627Z,10.50
2018-06-08T11:24:16.183Z,14.15
2018-06-08T11:29:18.727Z,11.68
2018-06-08T11:34:21.284Z,13.68
2018-06-08T11:39:23.881Z,13.50
2018-06-08T11:44:26.440Z,12.53
2018-06-08T11:49:29.066Z,11.23
2018-06-08T11:54:31.713Z,12.13
2018-06-08T11:59:34.304Z,11.40
2018-06-08T12:04:36.887Z,12.40
2018-06-08T12:09:39.570Z,13.50
2018-06-08T12:14:42.148Z,11.70
2018-06-08T12:19:44.758Z,10.33
2018-06-08T12:24:47.387Z,9.87
2018-06-08T12:29:50.008Z,10.53
2018-06-08T12:34:52.893Z,9.70
2018-06-08T12:39:55.511Z,8.20
2018-06-08T12:44:58.186Z,9.58
2018-06-08T12:50:00.807Z,9.00
2018-06-08T12:55:03.483Z,7.45
2018-06-08T13:00:06.980Z,9.28
2018-06-08T13:05:09.690Z,7.97
2018-06-08T13:10:12.747Z,9.25
2018-06-08T13:15:15.523Z,9.80
2018-06-08T13:20:18.187Z,8.88
2018-06-08T13:25:20.927Z,9.00
2018-06-08T13:30:23.557Z,9.83
2018-06-08T13:35:26.243Z,9.10
2018-06-08T13:40:28.883Z,9.15
2018-06-08T13:45:31.529Z,9.28
2018-06-08T13:50:34.305Z,9.47
2018-06-08T13:55:37.141Z,9.60
2018-06-08T14:00:39.852Z,7.50
2018-06-08T14:05:42.464Z,7.53
2018-06-08T14:10:45.087Z,7.60
2018-06-08T14:15:47.999Z,8.70
2018-06-08T14:20:50.616Z,10.30
2018-06-08T14:25:53.293Z,15.10
2018-06-08T14:30:55.926Z,12.60
2018-06-08T14:35:59.031Z,12.17
2018-06-08T14:41:01.893Z,10.93
2018-06-08T14:46:04.524Z,10.13
2018-06-08T14:51:07.241Z,8.10
2018-06-08T14:56:10.015Z,7.37
2018-06-08T15:01:12.639Z,7.97
2018-06-08T15:06:15.786Z,7.97
2018-06-08T15:11:18.425Z,9.90
2018-06-08T15:16:21.059Z,9.70
2018-06-08T15:21:23.683Z,8.53
2018-06-08T15:26:27.187Z,8.30
2018-06-08T15:31:29.821Z,7.70
2018-06-08T15:36:32.461Z,10.60
2018-06-08T15:41:35.108Z,7.60
2018-06-08T15:46:37.735Z,7.80
2018-06-08T15:51:40.330Z,7.53
2018-06-08T15:56:43.023Z,7.73
2018-06-08T16:01:45.719Z,9.03
2018-06-08T16:06:48.466Z,7.80
2018-06-08T16:11:51.105Z,9.83
2018-06-08T16:16:53.711Z,8.53
2018-06-08T16:21:56.308Z,8.33
2018-06-08T16:26:58.923Z,9.40
2018-06-08T16:32:01.611Z,9.30
2018-06-08T16:37:04.266Z,8.90
2018-06-08T16:42:06.880Z,8.77
2018-06-08T16:47:10.032Z,9.20
2018-06-08T16:52:12.624Z,9.13
2018-06-08T16:57:15.278Z,10.33
2018-06-08T17:02:17.900Z,9.73
2018-06-08T17:07:20.632Z,9.97
2018-06-08T17:12:23.264Z,11.20
2018-06-08T17:17:25.901Z,13.50
2018-06-08T17:22:28.640Z,12.43
2018-06-08T17:27:31.280Z,12.20
2018-06-08T17:32:33.909Z,8.73
2018-06-08T17:37:36.654Z,7.77
2018-06-08T17:42:39.290Z,6.67
2018-06-08T17:47:42.080Z,13.00
2018-06-08T17:52:44.680Z,11.70
2018-06-08T17:57:47.318Z,12.70
2018-06-08T18:02:49.919Z,8.10
2018-06-08T18:07:52.771Z,11.80
2018-06-08T18:12:55.410Z,12.10
2018-06-08T18:17:58.127Z,15.87
2018-06-08T18:23:00.683Z,11.57
2018-06-08T18:28:03.361Z,11.40
2018-06-08T18:33:06.156Z,9.53
2018-06-08T18:38:08.830Z,9.13
2018-06-08T18:43:11.464Z,7.40
2018-06-08T18:48:14.255Z,8.13
2018-06-08T18:53:16.915Z,11.80
2018-06-08T18:58:19.643Z,7.10
2018-06-08T19:03:22.273Z,6.43
2018-06-08T19:08:24.876Z,6.97
2018-06-08T19:13:27.576Z,9.03
2018-06-08T19:18:30.219Z,13.77
2018-06-08T19:23:33.133Z,9.37
2018-06-08T19:28:35.765Z,8.80
2018-06-08T19:33:38.387Z,12.53
2018-06-08T19:38:41.022Z,9.40
2018-06-08T19:43:43.698Z,7.30
2018-06-08T19:48:46.498Z,9.07
2018-06-08T19:53:49.138Z,8.23
2018-06-08T19:58:51.747Z,6.00
2018-06-08T20:03:54.391Z,8.50
2018-06-08T20:08:57.123Z,6.90
2018-06-08T20:14:00.559Z,8.10
2018-06-08T20:19:03.215Z,7.50
2018-06-08T20:24:06.135Z,5.00
2018-06-08T20:29:08.806Z,5.47
2018-06-08T20:34:12.113Z,4.73
2018-06-08T20:39:14.853Z,8.97
2018-06-08T20:44:17.601Z,7.63
2018-06-08T20:49:20.232Z,7.63
2018-06-08T20:54:22.886Z,8.67
2018-06-08T20:59:25.529Z,15.10
2018-06-08T21:04:28.138Z,7.70
2018-06-08T21:09:30.768Z,6.03
2018-06-08T21:14:33.972Z,7.37
2018-06-08T21:19:36.781Z,7.73
2018-06-08T21:24:39.394Z,6.20
2018-06-08T21:29:42.095Z,7.63
2018-06-08T21:34:44.711Z,7.20
2018-06-08T21:39:47.463Z,9.23
2018-06-08T21:44:50.187Z,7.53
2018-06-08T21:49:52.824Z,10.00
2018-06-08T21:54:55.458Z,8.47
2018-06-08T21:59:58.056Z,9.40
2018-06-08T22:05:00.688Z,6.80
2018-06-08T22:10:03.480Z,8.20
2018-06-08T22:15:06.087Z,8.57
2018-06-08T22:20:08.714Z,9.33
2018-06-08T22:25:11.431Z,7.73
2018-06-08T22:30:14.066Z,10.30
2018-06-08T22:35:16.647Z,7.50
2018-06-08T22:40:19.243Z,10.10
2018-06-08T22:45:21.852Z,7.53
2018-06-08T22:50:24.462Z,7.87
2018-06-08T22:55:27.082Z,8.83
2018-06-08T23:00:29.683Z,10.23
2018-06-08T23:05:32.487Z,12.83
2018-06-08T23:10:35.291Z,9.33
2018-06-08T23:15:37.918Z,10.17
2018-06-08T23:20:40.530Z,8.57
2018-06-08T23:25:43.194Z,7.70
2018-06-08T23:30:45.823Z,8.60
2018-06-08T23:35:48.442Z,7.40
2018-06-08T23:40:51.051Z,11.07
2018-06-08T23:45:53.716Z,12.83
2018-06-08T23:50:56.329Z,6.83
2018-06-08T23:55:58.951Z,8.30
